Ora Direzione Vento Velocita' Vento Media Vento Raffica Max. Temperatura Wind Chill Pioggia Pressione
21:40:04.0135 °(SE)7.4 Kts7.6 Kts19.1 Kts19.8 °C19.8 °C0.0 mm1011.0 Hpa
21:18:56.0158 °(SSE)6.8 Kts6.2 Kts19.1 Kts19.9 °C19.9 °C0.0 mm1011.1 Hpa
20:59:55.0135 °(SE)9.5 Kts9.9 Kts19.1 Kts20.1 °C20.1 °C0.0 mm1011.2 Hpa
20:38:48.0113 °(ESE)9.9 Kts10.7 Kts19.1 Kts20.2 °C20.2 °C0.0 mm1011.2 Hpa
20:19:47.0135 °(SE)8.0 Kts9.3 Kts19.1 Kts20.4 °C20.4 °C0.0 mm1011.2 Hpa
19:58:14.0135 °(SE)11.9 Kts12.6 Kts19.1 Kts20.5 °C20.5 °C0.0 mm1011.0 Hpa
19:38:51.0113 °(ESE)12.8 Kts13.2 Kts19.1 Kts20.6 °C20.6 °C0.0 mm1011.1 Hpa
19:19:32.0135 °(SE)9.9 Kts10.3 Kts19.1 Kts20.6 °C20.6 °C0.0 mm1011.2 Hpa
18:58:18.0113 °(ESE)8.9 Kts9.1 Kts19.1 Kts21.1 °C21.1 °C0.0 mm1011.3 Hpa
18:39:12.0135 °(SE)10.7 Kts11.1 Kts19.1 Kts20.2 °C20.2 °C0.0 mm1011.2 Hpa
18:19:53.0135 °(SE)8.4 Kts8.7 Kts19.1 Kts19.9 °C19.9 °C0.0 mm1011.4 Hpa
17:58:45.0135 °(SE)9.7 Kts9.9 Kts19.1 Kts20.0 °C20.0 °C0.0 mm1011.4 Hpa
17:39:36.0135 °(SE)10.5 Kts11.5 Kts19.1 Kts20.1 °C20.1 °C0.0 mm1011.5 Hpa
17:18:19.0113 °(ESE)15.6 Kts15.2 Kts19.1 Kts20.0 °C19.7 °C0.0 mm1011.4 Hpa
16:59:09.0135 °(SE)15.2 Kts14.0 Kts19.1 Kts20.1 °C19.8 °C0.0 mm1011.5 Hpa
16:40:03.0113 °(ESE)17.1 Kts15.7 Kts17.9 Kts20.1 °C19.7 °C0.0 mm1011.4 Hpa
16:18:51.0113 °(ESE)17.9 Kts15.9 Kts16.7 Kts20.2 °C19.8 °C0.0 mm1011.9 Hpa
15:59:36.0135 °(SE)12.8 Kts10.5 Kts14.0 Kts20.2 °C20.1 °C0.0 mm1012.2 Hpa
15:38:23.0135 °(SE)10.3 Kts10.7 Kts14.0 Kts20.4 °C20.4 °C0.0 mm1012.7 Hpa
15:19:21.0135 °(SE)11.5 Kts11.7 Kts14.0 Kts20.6 °C20.6 °C0.0 mm1012.6 Hpa